createdAt,value
2018-09-27T18:06:20.699Z,99.90
2018-09-27T18:08:51.220Z,71.00
2018-09-27T18:11:22.688Z,70.30
2018-09-27T18:13:52.161Z,70.90
2018-09-27T18:16:21.670Z,70.70
2018-09-27T18:18:51.391Z,72.30
2018-09-27T18:21:20.806Z,71.80
2018-09-27T18:23:52.163Z,72.40
2018-09-27T18:26:28.202Z,72.00
2018-09-27T18:28:57.169Z,72.30
2018-09-27T18:31:26.441Z,70.60
2018-09-27T18:34:00.650Z,70.30
2018-09-27T18:36:30.680Z,70.70
2018-09-27T18:39:03.554Z,70.40
2018-09-27T18:41:38.205Z,71.10
2018-09-27T18:44:08.033Z,70.20
2018-09-27T18:46:37.592Z,70.20
2018-09-27T18:49:09.489Z,70.10
2018-09-27T18:51:45.121Z,69.60
2018-09-27T18:54:15.634Z,69.50
2018-09-27T18:56:47.143Z,70.10
2018-09-27T18:59:16.195Z,70.30
2018-09-27T19:01:47.162Z,71.10
2018-09-27T19:04:19.753Z,70.80
2018-09-27T19:06:50.570Z,71.70
2018-09-27T19:09:21.486Z,71.70
2018-09-27T19:11:57.420Z,72.10
2018-09-27T19:14:29.127Z,71.40
2018-09-27T19:16:59.466Z,71.40
2018-09-27T19:19:33.089Z,71.10
2018-09-27T19:22:04.392Z,71.40
2018-09-27T19:24:35.655Z,70.20
2018-09-27T19:27:07.757Z,71.00
2018-09-27T19:29:38.422Z,70.80
2018-09-27T19:32:13.757Z,71.40
2018-09-27T19:34:48.122Z,71.80
2018-09-27T19:37:17.467Z,72.00
2018-09-27T19:39:47.531Z,72.40
2018-09-27T19:42:19.874Z,73.10
2018-09-27T19:44:50.110Z,73.30
2018-09-27T19:47:20.657Z,73.50
2018-09-27T19:49:51.662Z,73.60
2018-09-27T19:52:23.591Z,73.80
2018-09-27T19:54:55.166Z,74.10
2018-09-27T19:57:31.491Z,74.50
2018-09-27T20:00:00.676Z,74.60
2018-09-27T20:02:31.680Z,74.70
2018-09-27T20:05:01.313Z,75.20
2018-09-27T20:07:32.476Z,75.10
2018-09-27T20:10:03.312Z,75.70
2018-09-27T20:12:32.606Z,75.60
2018-09-27T20:15:03.350Z,75.90
2018-09-27T20:17:33.651Z,76.50
2018-09-27T20:20:03.096Z,76.80
2018-09-27T20:22:34.483Z,76.80
2018-09-27T20:25:04.707Z,76.70
2018-09-27T20:27:33.674Z,76.90
2018-09-27T20:30:07.584Z,77.60
2018-09-27T20:32:36.705Z,76.70
2018-09-27T20:35:06.448Z,76.70
2018-09-27T20:37:35.714Z,77.20
2018-09-27T20:40:06.902Z,77.40
2018-09-27T20:42:37.074Z,78.00
2018-09-27T20:45:06.464Z,77.60
2018-09-27T20:47:35.582Z,78.00
2018-09-27T20:50:04.371Z,77.30
2018-09-27T20:55:26.177Z,78.20
2018-09-27T20:57:56.591Z,78.50
2018-09-27T21:00:40.180Z,78.60
2018-09-27T21:03:09.065Z,78.70
2018-09-27T21:05:38.754Z,78.30
2018-09-27T21:08:07.675Z,79.00
2018-09-27T21:10:36.539Z,79.10
2018-09-27T21:15:45.693Z,79.20
2018-09-27T21:18:17.116Z,79.40
2018-09-27T21:20:47.451Z,79.90
2018-09-27T21:23:17.710Z,79.50
2018-09-27T21:25:47.247Z,79.70
2018-09-27T21:28:18.823Z,79.70
2018-09-27T21:30:48.587Z,79.80
2018-09-27T21:33:17.473Z,79.70
2018-09-27T21:35:47.671Z,79.90
2018-09-27T21:38:18.155Z,80.20
2018-09-27T21:40:49.162Z,80.80
2018-09-27T21:43:18.260Z,80.90
2018-09-27T21:45:47.297Z,81.60
2018-09-27T21:48:19.349Z,82.20
2018-09-27T21:50:48.568Z,82.60
2018-09-27T21:53:20.567Z,82.40
2018-09-27T21:55:53.079Z,82.50
2018-09-27T21:58:22.629Z,83.00
2018-09-27T22:00:54.036Z,82.50
2018-09-27T22:03:24.594Z,83.20
2018-09-27T22:05:54.137Z,83.70
2018-09-27T22:08:23.218Z,82.90
2018-09-27T22:10:52.164Z,83.40
2018-09-27T22:13:20.975Z,83.50
2018-09-27T22:15:50.066Z,83.20
2018-09-27T22:18:20.405Z,84.00
2018-09-27T22:20:50.189Z,83.10
2018-09-27T22:23:20.000Z,84.30
2018-09-27T22:25:49.026Z,84.30
2018-09-27T22:28:18.850Z,84.50
2018-09-27T22:30:48.289Z,84.30
2018-09-27T22:33:17.445Z,84.20
2018-09-27T22:35:46.962Z,84.60
2018-09-27T22:38:16.402Z,85.10
2018-09-27T22:40:45.170Z,85.10
2018-09-27T22:43:15.661Z,85.40
2018-09-27T22:45:45.154Z,86.30
2018-09-27T22:48:14.177Z,86.90
2018-09-27T22:50:42.958Z,86.90
2018-09-27T22:53:12.203Z,86.70
2018-09-27T22:55:41.238Z,87.20
2018-09-27T22:58:11.057Z,87.70
2018-09-27T23:00:40.039Z,88.20
2018-09-27T23:03:08.902Z,88.20
2018-09-27T23:05:37.693Z,88.50
2018-09-27T23:08:08.165Z,89.30
2018-09-27T23:10:37.770Z,90.00
2018-09-27T23:13:15.679Z,90.30
2018-09-27T23:15:44.530Z,90.60
2018-09-27T23:18:13.335Z,90.50
2018-09-27T23:20:43.618Z,90.60
2018-09-27T23:23:14.417Z,90.00
2018-09-27T23:25:43.174Z,90.50
2018-09-27T23:28:16.120Z,90.70
2018-09-27T23:30:45.187Z,90.70
2018-09-27T23:33:14.402Z,91.10
2018-09-27T23:35:43.178Z,91.20
2018-09-27T23:38:12.204Z,91.30
2018-09-27T23:40:42.718Z,91.50
2018-09-27T23:43:13.004Z,91.90
2018-09-27T23:45:42.318Z,91.90
2018-09-27T23:48:11.953Z,92.20
2018-09-27T23:50:40.754Z,92.20
2018-09-27T23:53:09.593Z,92.40
2018-09-27T23:55:39.380Z,93.10
2018-09-27T23:58:09.232Z,93.50
